Time;durP1;ratioP1;P1;durP2;ratioP2;P2;SDS_P1;SDS_P2;PMS_P1;PMS_P2;Temp;Humidity;BMP_temperature;BMP_pressure;BME280_temperature;BME280_humidity;BME280_pressure;Samples;Min_cycle;Max_cycle;Signal;HPM_P1;HPM_P2
2022/12/30 00:00:30;;;;;;;21.60;4.30;;;;;;;;;;5062853;28;21801;-62
2022/12/30 00:02:56;;;;;;;11.23;2.58;;;;;;;;;;5058944;28;20379;-62
2022/12/30 00:05:22;;;;;;;19.08;3.80;;;;;;;;;;5056621;28;20039;-62
2022/12/30 00:07:48;;;;;;;17.33;3.47;;;;;;;;;;5067237;28;20119;-62
2022/12/30 00:10:14;;;;;;;23.95;4.72;;;;;;;;;;5060170;28;20041;-63
2022/12/30 00:34:57;;;;;;;15.63;5.30;;;;;;;;;;5068860;28;20572;-62
2022/12/30 00:37:23;;;;;;;19.75;5.15;;;;;;;;;;5054960;28;20047;-62
2022/12/30 00:39:49;;;;;;;26.02;7.47;;;;;;;;;;5073323;28;20049;-61
2022/12/30 00:44:59;;;;;;;22.08;7.97;;;;;;;;;;5055617;28;20120;-62
2022/12/30 00:47:25;;;;;;;23.40;7.30;;;;;;;;;;5061931;28;20471;-62
2022/12/30 00:58:05;;;;;;;21.80;5.88;;;;;;;;;;5065219;28;20135;-62
2022/12/30 01:00:31;;;;;;;18.05;2.90;;;;;;;;;;5066362;28;20072;-63
2022/12/30 01:02:57;;;;;;;18.77;3.97;;;;;;;;;;5056434;28;20041;-62
2022/12/30 01:05:23;;;;;;;16.63;3.10;;;;;;;;;;5057132;28;20086;-63
2022/12/30 01:07:49;;;;;;;23.88;3.70;;;;;;;;;;5054647;28;20041;-62
2022/12/30 01:10:15;;;;;;;16.13;4.05;;;;;;;;;;5054475;28;20047;-62
2022/12/30 01:12:41;;;;;;;14.43;2.60;;;;;;;;;;5055744;28;20045;-62
2022/12/30 01:15:07;;;;;;;19.10;3.47;;;;;;;;;;5067136;28;20048;-62
2022/12/30 01:17:34;;;;;;;16.67;3.75;;;;;;;;;;5061925;28;20517;-62
2022/12/30 01:20:00;;;;;;;14.82;3.00;;;;;;;;;;5053852;28;20041;-62
2022/12/30 01:22:26;;;;;;;17.35;3.22;;;;;;;;;;5061605;28;20072;-62
2022/12/30 01:24:52;;;;;;;13.05;3.03;;;;;;;;;;5053571;28;20033;-62
2022/12/30 01:27:19;;;;;;;19.23;2.88;;;;;;;;;;5064318;28;20315;-62
2022/12/30 01:29:46;;;;;;;14.10;2.65;;;;;;;;;;5074064;28;20068;-62
2022/12/30 01:32:14;;;;;;;15.75;3.00;;;;;;;;;;5067417;28;20072;-62
2022/12/30 01:34:40;;;;;;;15.13;3.75;;;;;;;;;;5061231;28;20174;-62
2022/12/30 01:37:06;;;;;;;21.25;3.15;;;;;;;;;;5065979;28;20479;-62
2022/12/30 01:39:32;;;;;;;15.20;3.35;;;;;;;;;;5066575;28;20039;-62
2022/12/30 01:41:59;;;;;;;20.05;3.00;;;;;;;;;;5053880;28;20032;-62
2022/12/30 01:44:43;;;;;;;14.18;3.03;;;;;;;;;;5069930;22;20071;-70
2022/12/30 01:47:11;;;;;;;17.30;2.83;;;;;;;;;;5037323;28;20033;-70
2022/12/30 01:49:39;;;;;;;9.57;2.70;;;;;;;;;;5045338;28;20049;-69
2022/12/30 01:52:06;;;;;;;12.68;2.70;;;;;;;;;;5032820;28;20033;-70
2022/12/30 01:54:32;;;;;;;14.85;3.25;;;;;;;;;;5031940;28;20051;-70
2022/12/30 01:56:58;;;;;;;16.60;3.38;;;;;;;;;;5030367;28;20503;-69
2022/12/30 01:59:26;;;;;;;17.63;3.88;;;;;;;;;;5041205;28;20458;-70
2022/12/30 02:01:52;;;;;;;16.15;3.40;;;;;;;;;;5040995;28;20036;-70
2022/12/30 02:04:25;;;;;;;18.20;3.35;;;;;;;;;;5041326;28;20503;-70
2022/12/30 02:07:02;;;;;;;14.07;3.40;;;;;;;;;;5030851;28;20751;-70
2022/12/30 02:09:28;;;;;;;18.17;3.67;;;;;;;;;;5031868;28;20049;-70
2022/12/30 02:11:55;;;;;;;19.40;3.20;;;;;;;;;;5032318;28;20470;-69
2022/12/30 02:14:21;;;;;;;17.85;3.67;;;;;;;;;;5028430;28;20064;-69
2022/12/30 02:16:58;;;;;;;14.90;3.17;;;;;;;;;;5032047;28;20038;-69
2022/12/30 02:19:36;;;;;;;20.58;4.03;;;;;;;;;;5031418;28;20029;-70
2022/12/30 02:22:14;;;;;;;20.48;4.00;;;;;;;;;;5033818;28;20039;-69
2022/12/30 02:25:04;;;;;;;17.10;3.08;;;;;;;;;;5034921;28;20041;-70
2022/12/30 02:27:32;;;;;;;14.27;3.13;;;;;;;;;;5032440;28;20053;-70
2022/12/30 02:30:13;;;;;;;20.42;3.92;;;;;;;;;;5033520;28;20045;-70
2022/12/30 02:32:48;;;;;;;17.85;3.53;;;;;;;;;;5040437;28;20064;-70
2022/12/30 02:35:18;;;;;;;16.48;3.28;;;;;;;;;;5030904;28;20045;-70
2022/12/30 02:37:50;;;;;;;12.35;3.00;;;;;;;;;;5029330;28;20037;-70
2022/12/30 02:40:16;;;;;;;11.85;3.17;;;;;;;;;;5032457;28;20042;-69
2022/12/30 02:45:35;;;;;;;21.52;4.43;;;;;;;;;;5032871;28;20119;-70
2022/12/30 02:48:01;;;;;;;13.57;3.25;;;;;;;;;;5030792;28;20037;-70
2022/12/30 02:53:15;;;;;;;15.88;3.78;;;;;;;;;;5034944;28;20087;-69
2022/12/30 02:55:41;;;;;;;16.95;3.50;;;;;;;;;;5041740;28;20060;-70
2022/12/30 02:58:07;;;;;;;13.55;3.55;;;;;;;;;;5032797;28;20121;-69
2022/12/30 03:03:58;;;;;;;15.73;4.57;;;;;;;;;;5037603;28;20091;-69
2022/12/30 03:06:39;;;;;;;16.00;4.50;;;;;;;;;;5023563;28;20040;-70
2022/12/30 03:09:05;;;;;;;;;;;;;;;;;;5033493;28;20376;-69
2022/12/30 03:11:47;;;;;;;15.88;3.97;;;;;;;;;;5030129;28;19944;-69
2022/12/30 03:14:12;;;;;;;;;;;;;;;;;;5030491;28;20057;-70
2022/12/30 03:17:11;;;;;;;9.63;3.70;;;;;;;;;;5028062;28;19964;-69
2022/12/30 03:19:42;;;;;;;16.85;4.53;;;;;;;;;;5025502;28;20048;-69
2022/12/30 03:27:03;;;;;;;15.82;3.70;;;;;;;;;;5035458;28;20071;-69
2022/12/30 03:27:44;;;;;;;13.80;3.80;;;;;;;;;;5028325;28;20469;-70
2022/12/30 03:30:11;;;;;;;15.30;3.92;;;;;;;;;;5032313;28;20082;-69
2022/12/30 03:32:37;;;;;;;13.88;3.78;;;;;;;;;;5029593;28;20462;-69
2022/12/30 03:35:03;;;;;;;12.07;3.67;;;;;;;;;;5024287;28;20041;-70
2022/12/30 03:37:31;;;;;;;19.38;4.07;;;;;;;;;;5030991;28;20688;-69
2022/12/30 03:40:03;;;;;;;18.98;3.97;;;;;;;;;;5030867;28;20499;-70
2022/12/30 03:42:29;;;;;;;12.77;3.22;;;;;;;;;;5036646;28;20110;-69
2022/12/30 03:44:56;;;;;;;11.27;3.58;;;;;;;;;;5038446;28;20091;-69
2022/12/30 03:47:22;;;;;;;10.85;2.80;;;;;;;;;;5031372;28;20071;-69
2022/12/30 03:49:48;;;;;;;16.92;3.58;;;;;;;;;;5031308;28;20037;-69
2022/12/30 03:52:15;;;;;;;14.07;3.40;;;;;;;;;;5028865;28;20106;-69
2022/12/30 03:54:41;;;;;;;15.07;3.35;;;;;;;;;;5030356;28;20037;-69
2022/12/30 03:57:07;;;;;;;12.77;3.15;;;;;;;;;;5041530;28;20367;-69
2022/12/30 03:59:33;;;;;;;15.82;3.00;;;;;;;;;;5030493;28;20029;-69
2022/12/30 04:01:59;;;;;;;14.18;3.15;;;;;;;;;;5031581;28;20559;-69
2022/12/30 04:04:25;;;;;;;11.65;2.75;;;;;;;;;;5042612;28;20038;-69
2022/12/30 04:06:51;;;;;;;10.15;3.03;;;;;;;;;;5028125;28;20072;-69
2022/12/30 04:09:17;;;;;;;11.43;3.03;;;;;;;;;;5030764;28;20069;-69
2022/12/30 04:11:43;;;;;;;11.52;3.08;;;;;;;;;;5028267;28;20037;-69
2022/12/30 04:14:10;;;;;;;13.05;3.30;;;;;;;;;;5029557;28;20045;-70
2022/12/30 04:16:36;;;;;;;10.57;3.22;;;;;;;;;;5037640;28;20045;-70
2022/12/30 04:19:02;;;;;;;12.63;2.97;;;;;;;;;;5022937;28;20045;-69
2022/12/30 04:21:28;;;;;;;16.83;3.03;;;;;;;;;;5030574;28;20037;-70
2022/12/30 04:23:54;;;;;;;10.65;3.40;;;;;;;;;;5014814;28;20414;-70
2022/12/30 04:26:20;;;;;;;8.25;3.40;;;;;;;;;;5034897;28;20041;-69
2022/12/30 04:28:46;;;;;;;11.48;2.55;;;;;;;;;;5037692;28;20566;-69
2022/12/30 04:31:12;;;;;;;14.60;2.90;;;;;;;;;;5050611;28;20116;-69
2022/12/30 04:33:38;;;;;;;11.63;2.42;;;;;;;;;;5033211;28;20034;-70
2022/12/30 04:36:04;;;;;;;16.08;4.43;;;;;;;;;;5028354;28;20502;-70
2022/12/30 04:38:30;;;;;;;14.35;3.15;;;;;;;;;;5029845;28;20050;-70
2022/12/30 04:40:57;;;;;;;13.00;3.22;;;;;;;;;;5039090;28;20648;-69
2022/12/30 04:43:23;;;;;;;12.07;2.88;;;;;;;;;;5040082;28;20040;-69
2022/12/30 04:45:49;;;;;;;16.55;3.10;;;;;;;;;;5039069;28;20048;-69
2022/12/30 04:48:15;;;;;;;9.40;3.00;;;;;;;;;;5040247;28;20045;-70
2022/12/30 04:50:42;;;;;;;8.10;2.42;;;;;;;;;;5033683;28;20114;-70
2022/12/30 04:53:08;;;;;;;13.00;3.13;;;;;;;;;;5030779;28;20050;-69
2022/12/30 04:55:34;;;;;;;8.10;2.45;;;;;;;;;;5032474;28;20113;-70
2022/12/30 04:58:00;;;;;;;15.60;3.25;;;;;;;;;;5031577;28;20040;-70
2022/12/30 05:00:26;;;;;;;11.07;2.70;;;;;;;;;;5041839;28;20463;-70
2022/12/30 05:02:52;;;;;;;14.00;3.17;;;;;;;;;;5022671;28;20050;-70
2022/12/30 05:05:18;;;;;;;12.50;2.63;;;;;;;;;;5031686;28;20516;-70
2022/12/30 05:07:44;;;;;;;12.82;2.83;;;;;;;;;;5042565;28;20045;-69
2022/12/30 05:10:10;;;;;;;7.90;2.38;;;;;;;;;;5041605;28;20502;-69
2022/12/30 05:12:36;;;;;;;11.27;2.90;;;;;;;;;;5032958;28;20495;-69
2022/12/30 05:15:03;;;;;;;12.48;2.53;;;;;;;;;;5034581;28;20038;-69
2022/12/30 05:17:29;;;;;;;13.98;3.15;;;;;;;;;;5032216;28;20049;-69
2022/12/30 05:19:55;;;;;;;9.77;3.08;;;;;;;;;;5036600;28;20040;-69
2022/12/30 05:22:21;;;;;;;20.17;3.45;;;;;;;;;;5045930;28;20041;-69
2022/12/30 05:27:32;;;;;;;9.63;2.92;;;;;;;;;;5031089;28;20037;-69
2022/12/30 05:29:58;;;;;;;13.98;3.10;;;;;;;;;;5042658;28;20499;-69
2022/12/30 05:32:24;;;;;;;16.25;3.42;;;;;;;;;;5033366;28;20037;-69
2022/12/30 05:34:50;;;;;;;13.75;3.47;;;;;;;;;;5024498;28;20052;-69
2022/12/30 05:37:16;;;;;;;12.30;2.70;;;;;;;;;;5027411;28;20136;-69
2022/12/30 05:39:41;;;;;;;14.10;2.65;;;;;;;;;;5026124;28;20128;-69
2022/12/30 05:42:08;;;;;;;11.10;2.47;;;;;;;;;;5030405;28;20051;-69
2022/12/30 05:44:35;;;;;;;9.45;2.80;;;;;;;;;;5032814;28;20136;-70
2022/12/30 05:47:01;;;;;;;10.77;2.65;;;;;;;;;;5031976;28;20117;-69
2022/12/30 05:49:27;;;;;;;13.77;3.38;;;;;;;;;;5040351;28;20143;-69
2022/12/30 05:51:53;;;;;;;10.05;2.53;;;;;;;;;;5030898;28;20049;-68
2022/12/30 05:54:19;;;;;;;12.35;3.10;;;;;;;;;;5030567;28;20041;-69
2022/12/30 05:56:45;;;;;;;13.32;2.78;;;;;;;;;;5031337;28;20073;-69
2022/12/30 05:59:11;;;;;;;9.23;2.95;;;;;;;;;;5035053;28;20442;-69
2022/12/30 06:01:37;;;;;;;11.68;3.25;;;;;;;;;;5045549;28;20059;-69
2022/12/30 06:04:03;;;;;;;10.70;2.80;;;;;;;;;;5030856;28;20068;-69
2022/12/30 06:06:30;;;;;;;10.48;2.90;;;;;;;;;;5029508;28;20549;-68
2022/12/30 06:08:56;;;;;;;13.13;2.95;;;;;;;;;;5032264;28;20503;-69
2022/12/30 06:11:22;;;;;;;13.13;2.92;;;;;;;;;;5036839;28;20045;-69
2022/12/30 06:13:48;;;;;;;9.15;2.42;;;;;;;;;;5039745;28;20044;-69
2022/12/30 06:16:14;;;;;;;11.77;3.15;;;;;;;;;;5040489;28;20037;-69
2022/12/30 06:18:40;;;;;;;10.23;2.78;;;;;;;;;;5014924;28;20746;-69
2022/12/30 06:21:06;;;;;;;10.77;2.42;;;;;;;;;;5020030;28;20149;-70
2022/12/30 06:23:32;;;;;;;16.45;3.10;;;;;;;;;;5030751;28;20108;-69
2022/12/30 06:25:58;;;;;;;12.50;2.83;;;;;;;;;;5037825;28;20117;-70
2022/12/30 06:28:25;;;;;;;13.60;3.10;;;;;;;;;;5039558;28;20502;-69
2022/12/30 06:30:52;;;;;;;12.20;2.60;;;;;;;;;;5027518;28;20045;-69
2022/12/30 06:33:18;;;;;;;10.63;2.38;;;;;;;;;;5035928;28;20048;-70
2022/12/30 06:35:45;;;;;;;13.57;3.10;;;;;;;;;;5030812;28;20490;-69
2022/12/30 06:38:11;;;;;;;10.70;2.83;;;;;;;;;;5031333;28;20037;-69
2022/12/30 06:40:37;;;;;;;12.90;2.92;;;;;;;;;;5032288;28;20505;-70
2022/12/30 06:43:03;;;;;;;15.57;4.25;;;;;;;;;;5036666;28;20115;-69
2022/12/30 06:45:29;;;;;;;12.20;2.72;;;;;;;;;;5041645;28;20045;-69
2022/12/30 06:47:55;;;;;;;10.05;2.25;;;;;;;;;;5033121;28;20073;-70
2022/12/30 06:50:21;;;;;;;14.50;3.00;;;;;;;;;;5036472;28;20042;-70
2022/12/30 06:52:47;;;;;;;12.93;3.15;;;;;;;;;;5048360;28;20098;-70
2022/12/30 06:55:13;;;;;;;16.70;2.38;;;;;;;;;;5031872;28;20080;-70
2022/12/30 06:57:39;;;;;;;11.43;2.53;;;;;;;;;;5030583;28;20092;-70
2022/12/30 07:00:06;;;;;;;15.57;3.08;;;;;;;;;;5024220;28;20072;-70
2022/12/30 07:02:32;;;;;;;12.38;3.00;;;;;;;;;;5030738;28;20065;-69
2022/12/30 07:04:58;;;;;;;17.77;3.17;;;;;;;;;;5030122;28;20681;-70
2022/12/30 07:07:24;;;;;;;16.30;2.70;;;;;;;;;;5031745;28;20184;-69
2022/12/30 07:09:50;;;;;;;13.25;3.13;;;;;;;;;;5045572;28;20072;-70
2022/12/30 07:12:16;;;;;;;12.70;2.55;;;;;;;;;;5030160;28;20042;-69
2022/12/30 07:14:43;;;;;;;13.80;2.72;;;;;;;;;;5039339;28;20044;-70
2022/12/30 07:17:09;;;;;;;13.77;2.90;;;;;;;;;;5033363;28;20095;-70
2022/12/30 07:19:35;;;;;;;14.43;2.58;;;;;;;;;;5029360;28;20049;-70
2022/12/30 07:22:01;;;;;;;16.63;3.03;;;;;;;;;;5032692;28;20149;-70
2022/12/30 07:24:27;;;;;;;13.40;2.17;;;;;;;;;;5032343;28;20116;-70
2022/12/30 07:26:52;;;;;;;22.33;2.80;;;;;;;;;;5033711;28;20049;-70
2022/12/30 07:29:20;;;;;;;13.23;3.30;;;;;;;;;;5029431;28;20166;-70
2022/12/30 07:31:46;;;;;;;12.25;2.60;;;;;;;;;;5027835;28;20041;-70
2022/12/30 07:34:12;;;;;;;14.70;2.80;;;;;;;;;;5035646;28;20077;-69
2022/12/30 07:36:38;;;;;;;13.10;2.45;;;;;;;;;;5028831;28;20037;-69
2022/12/30 07:39:06;;;;;;;14.52;3.10;;;;;;;;;;5035832;28;20041;-69
2022/12/30 07:41:32;;;;;;;15.98;2.83;;;;;;;;;;5038224;28;20045;-69
2022/12/30 07:43:58;;;;;;;13.45;2.33;;;;;;;;;;5059256;22;20045;-64
2022/12/30 07:46:24;;;;;;;9.10;2.38;;;;;;;;;;5079741;28;20032;-64
2022/12/30 07:48:50;;;;;;;11.48;2.45;;;;;;;;;;5086622;28;20558;-65
2022/12/30 07:51:17;;;;;;;16.52;3.05;;;;;;;;;;5075632;28;20032;-64
2022/12/30 07:53:43;;;;;;;11.93;2.97;;;;;;;;;;5077051;28;20040;-65
2022/12/30 07:56:10;;;;;;;11.68;2.80;;;;;;;;;;5065514;28;20076;-65
2022/12/30 07:58:37;;;;;;;12.65;3.20;;;;;;;;;;5067274;28;20075;-64
2022/12/30 08:01:07;;;;;;;12.48;2.55;;;;;;;;;;5066801;28;20494;-64
2022/12/30 08:03:33;;;;;;;15.25;2.60;;;;;;;;;;5060395;28;20079;-64
2022/12/30 08:06:12;;;;;;;15.27;3.30;;;;;;;;;;5056022;28;20040;-64
2022/12/30 08:08:39;;;;;;;13.13;2.83;;;;;;;;;;5062265;28;20524;-64
2022/12/30 08:11:06;;;;;;;11.02;3.05;;;;;;;;;;5065908;28;20044;-65
2022/12/30 08:13:33;;;;;;;15.93;3.20;;;;;;;;;;5057112;28;20044;-64
2022/12/30 08:15:59;;;;;;;15.95;2.83;;;;;;;;;;5062502;28;20079;-65
2022/12/30 08:18:25;;;;;;;15.00;3.47;;;;;;;;;;5065518;28;20040;-65
2022/12/30 08:20:51;;;;;;;11.98;3.38;;;;;;;;;;5060024;28;20398;-64
2022/12/30 08:23:17;;;;;;;17.17;3.25;;;;;;;;;;5065216;28;20037;-64
2022/12/30 08:25:43;;;;;;;14.30;3.20;;;;;;;;;;5059626;28;20090;-65
2022/12/30 08:28:09;;;;;;;14.35;2.92;;;;;;;;;;5064656;28;20045;-65
2022/12/30 08:30:35;;;;;;;16.38;3.13;;;;;;;;;;5065482;28;20400;-65
2022/12/30 08:33:01;;;;;;;14.50;3.10;;;;;;;;;;5058505;28;20051;-65
2022/12/30 08:35:27;;;;;;;14.70;2.97;;;;;;;;;;5057776;28;20024;-64
2022/12/30 08:37:53;;;;;;;9.57;2.75;;;;;;;;;;5062561;28;20048;-65
2022/12/30 08:40:19;;;;;;;11.30;3.05;;;;;;;;;;5061503;28;20498;-65
2022/12/30 08:42:45;;;;;;;14.20;2.47;;;;;;;;;;5068550;28;20044;-65
2022/12/30 08:45:11;;;;;;;9.00;2.63;;;;;;;;;;5071124;28;20040;-65
2022/12/30 08:47:37;;;;;;;13.70;2.58;;;;;;;;;;5063628;28;20149;-65
2022/12/30 08:50:03;;;;;;;11.02;2.88;;;;;;;;;;5071522;28;20422;-65
2022/12/30 08:52:29;;;;;;;11.07;2.75;;;;;;;;;;5060871;28;20045;-64
2022/12/30 08:54:56;;;;;;;8.55;2.65;;;;;;;;;;5055730;28;20032;-65
2022/12/30 08:57:22;;;;;;;10.63;2.47;;;;;;;;;;5062291;28;20398;-65
2022/12/30 08:59:48;;;;;;;11.85;2.65;;;;;;;;;;5065299;28;20041;-65
2022/12/30 09:02:14;;;;;;;12.57;2.42;;;;;;;;;;5064888;28;20045;-65
2022/12/30 09:04:40;;;;;;;12.65;2.53;;;;;;;;;;5065987;28;20486;-65
2022/12/30 09:07:06;;;;;;;10.15;2.60;;;;;;;;;;5067653;28;20039;-65
2022/12/30 09:09:32;;;;;;;15.75;2.53;;;;;;;;;;5058527;28;20045;-65
2022/12/30 09:11:58;;;;;;;10.05;2.38;;;;;;;;;;5066735;28;20072;-65
2022/12/30 09:14:24;;;;;;;11.32;2.55;;;;;;;;;;5072778;28;20114;-65
2022/12/30 09:16:51;;;;;;;8.57;2.03;;;;;;;;;;5064807;28;20063;-65
2022/12/30 09:19:17;;;;;;;10.52;2.65;;;;;;;;;;5066479;28;20157;-64
2022/12/30 09:21:43;;;;;;;10.00;2.42;;;;;;;;;;5068871;28;20192;-65
2022/12/30 09:24:12;;;;;;;11.70;2.92;;;;;;;;;;5062223;28;20530;-65
2022/12/30 09:26:38;;;;;;;8.38;1.88;;;;;;;;;;5061819;28;20048;-65
2022/12/30 09:29:04;;;;;;;9.95;3.25;;;;;;;;;;5065141;28;20544;-65
2022/12/30 09:31:30;;;;;;;8.98;2.78;;;;;;;;;;5063114;28;20482;-65
2022/12/30 09:33:56;;;;;;;9.02;2.65;;;;;;;;;;5061101;28;20044;-65
2022/12/30 09:36:22;;;;;;;8.45;2.42;;;;;;;;;;5064805;28;20044;-64
2022/12/30 09:38:48;;;;;;;9.93;2.38;;;;;;;;;;5073001;28;20040;-65
2022/12/30 09:44:49;;;;;;;7.53;2.38;;;;;;;;;;5064942;28;20479;-65
2022/12/30 09:47:22;;;;;;;9.63;2.65;;;;;;;;;;5020913;28;20076;-65
2022/12/30 09:49:53;;;;;;;9.02;2.15;;;;;;;;;;5061275;28;20063;-65
2022/12/30 09:52:36;;;;;;;7.63;2.28;;;;;;;;;;5064833;28;20044;-65
2022/12/30 09:55:10;;;;;;;7.65;2.28;;;;;;;;;;5071935;28;20040;-65
2022/12/30 09:57:37;;;;;;;6.30;2.10;;;;;;;;;;5065218;28;20585;-65
2022/12/30 10:00:07;;;;;;;10.02;2.05;;;;;;;;;;5066696;28;20039;-65
2022/12/30 10:02:38;;;;;;;7.22;2.40;;;;;;;;;;5066972;28;20051;-65
2022/12/30 10:05:04;;;;;;;9.00;1.65;;;;;;;;;;5062157;28;20037;-65
2022/12/30 10:07:53;;;;;;;7.97;2.25;;;;;;;;;;5068441;28;20067;-66
2022/12/30 10:10:25;;;;;;;9.57;1.80;;;;;;;;;;5028237;28;20044;-66
2022/12/30 10:13:04;;;;;;;6.63;2.30;;;;;;;;;;5056186;28;20037;-66
2022/12/30 10:15:35;;;;;;;11.07;2.20;;;;;;;;;;5059285;28;20071;-66
2022/12/30 10:18:13;;;;;;;6.53;1.75;;;;;;;;;;5070001;28;20047;-65
2022/12/30 10:20:44;;;;;;;9.23;2.60;;;;;;;;;;5067942;28;20509;-65
2022/12/30 10:23:10;;;;;;;8.82;2.03;;;;;;;;;;5060831;28;20033;-66
2022/12/30 10:25:45;;;;;;;6.38;1.90;;;;;;;;;;5063435;28;20048;-65
2022/12/30 10:28:14;;;;;;;9.55;1.88;;;;;;;;;;5064740;28;20118;-65
2022/12/30 10:30:43;;;;;;;10.75;2.33;;;;;;;;;;5062060;28;20052;-66
2022/12/30 10:33:16;;;;;;;11.88;2.35;;;;;;;;;;5058182;28;20513;-66
2022/12/30 10:35:42;;;;;;;10.57;2.60;;;;;;;;;;5068739;28;20052;-66
2022/12/30 10:38:20;;;;;;;9.00;2.40;;;;;;;;;;5067656;28;20037;-65
2022/12/30 10:40:56;;;;;;;9.75;2.30;;;;;;;;;;5060807;28;20044;-66
2022/12/30 10:43:40;;;;;;;9.05;2.60;;;;;;;;;;5059925;28;20502;-65
2022/12/30 10:46:09;;;;;;;12.20;3.20;;;;;;;;;;5063601;28;20033;-66
2022/12/30 10:48:54;;;;;;;6.63;1.63;;;;;;;;;;5064636;28;20434;-66
2022/12/30 10:51:20;;;;;;;11.55;2.72;;;;;;;;;;5061016;28;20056;-66
2022/12/30 10:53:47;;;;;;;8.80;2.65;;;;;;;;;;5064472;28;20047;-66
2022/12/30 10:56:22;;;;;;;8.25;2.22;;;;;;;;;;5061527;28;20201;-65
2022/12/30 10:58:48;;;;;;;7.60;2.40;;;;;;;;;;5068724;28;20063;-65
2022/12/30 11:01:19;;;;;;;10.05;2.40;;;;;;;;;;5059395;28;20494;-65
2022/12/30 11:03:47;;;;;;;7.20;2.58;;;;;;;;;;5059915;28;20047;-65
2022/12/30 11:06:15;;;;;;;9.80;2.58;;;;;;;;;;5068968;28;20064;-65
2022/12/30 11:08:42;;;;;;;10.65;2.17;;;;;;;;;;5061237;28;20479;-65
2022/12/30 11:11:08;;;;;;;10.43;2.80;;;;;;;;;;5067325;28;20036;-65
2022/12/30 11:16:26;;;;;;;7.25;2.20;;;;;;;;;;5062054;28;20127;-66
2022/12/30 11:18:53;;;;;;;7.55;2.20;;;;;;;;;;5066643;28;20068;-66
2022/12/30 11:21:26;;;;;;;7.15;2.47;;;;;;;;;;5058007;28;20036;-65
2022/12/30 11:23:56;;;;;;;9.05;2.10;;;;;;;;;;5052392;28;20059;-65
2022/12/30 11:26:24;;;;;;;6.43;2.17;;;;;;;;;;5058847;28;20052;-66
2022/12/30 11:29:00;;;;;;;6.15;1.77;;;;;;;;;;5065644;28;20074;-65
2022/12/30 11:31:41;;;;;;;10.68;1.80;;;;;;;;;;5059748;28;20498;-65
2022/12/30 11:34:07;;;;;;;;;;;;;;;;;;5059677;28;20041;-65
2022/12/30 11:36:35;;;;;;;10.68;2.40;;;;;;;;;;5064025;28;19924;-65
2022/12/30 11:39:05;;;;;;;8.98;1.27;;;;;;;;;;5063107;28;20044;-64
2022/12/30 11:41:31;;;;;;;5.22;1.80;;;;;;;;;;5065759;28;20051;-65
2022/12/30 11:44:00;;;;;;;6.28;2.00;;;;;;;;;;5063029;28;20041;-65
2022/12/30 11:46:26;;;;;;;6.45;1.70;;;;;;;;;;5061271;28;20078;-66
2022/12/30 11:48:57;;;;;;;5.93;2.03;;;;;;;;;;5065108;28;20033;-66
2022/12/30 11:51:28;;;;;;;4.60;1.65;;;;;;;;;;5068038;28;20369;-66
2022/12/30 11:54:02;;;;;;;7.55;1.83;;;;;;;;;;5066462;28;20089;-66
2022/12/30 11:56:28;;;;;;;4.68;1.85;;;;;;;;;;5063337;28;20055;-66
2022/12/30 11:58:54;;;;;;;3.63;1.58;;;;;;;;;;5064757;28;20489;-66
2022/12/30 12:01:20;;;;;;;5.85;1.77;;;;;;;;;;5057481;28;20136;-65
2022/12/30 12:03:58;;;;;;;5.68;1.77;;;;;;;;;;5060874;28;20861;-66
2022/12/30 12:06:25;;;;;;;7.68;1.60;;;;;;;;;;5064499;28;20085;-66
2022/12/30 12:08:54;;;;;;;5.53;2.03;;;;;;;;;;5060397;28;20523;-66
2022/12/30 12:11:23;;;;;;;4.65;1.80;;;;;;;;;;5062311;28;20055;-66
2022/12/30 12:13:55;;;;;;;5.07;1.90;;;;;;;;;;5055066;28;20093;-66
2022/12/30 12:16:40;;;;;;;4.55;1.55;;;;;;;;;;5065069;28;20060;-66
2022/12/30 12:19:35;;;;;;;9.27;2.00;;;;;;;;;;5066769;28;20390;-65
2022/12/30 12:22:02;;;;;;;4.97;1.42;;;;;;;;;;5050407;28;20110;-65
2022/12/30 12:24:40;;;;;;;6.95;1.80;;;;;;;;;;5066792;28;20040;-65
2022/12/30 12:27:06;;;;;;;5.20;1.25;;;;;;;;;;5057306;28;20095;-65
2022/12/30 12:29:33;;;;;;;5.47;1.63;;;;;;;;;;5065225;28;20036;-65
2022/12/30 12:32:14;;;;;;;6.55;1.65;;;;;;;;;;5071602;28;20115;-66
2022/12/30 12:34:52;;;;;;;4.28;1.50;;;;;;;;;;5069638;28;20037;-66
2022/12/30 12:37:37;;;;;;;6.07;1.52;;;;;;;;;;5061817;28;20507;-65
2022/12/30 12:40:22;;;;;;;5.38;1.38;;;;;;;;;;5058000;28;20067;-66
2022/12/30 12:43:00;;;;;;;4.32;1.45;;;;;;;;;;5056232;28;20380;-66
2022/12/30 12:45:44;;;;;;;5.15;1.50;;;;;;;;;;5065475;28;20421;-66
2022/12/30 12:48:10;;;;;;;5.88;1.65;;;;;;;;;;5057353;28;20045;-66
2022/12/30 12:50:44;;;;;;;4.80;1.10;;;;;;;;;;5058425;28;20052;-66
2022/12/30 12:53:22;;;;;;;4.90;1.27;;;;;;;;;;5054263;28;20043;-66
2022/12/30 12:56:26;;;;;;;3.80;0.98;;;;;;;;;;5054719;28;20037;-66
2022/12/30 12:58:52;;;;;;;4.53;1.30;;;;;;;;;;4999650;28;20042;-65
2022/12/30 13:01:30;;;;;;;5.10;1.20;;;;;;;;;;5006971;28;20104;-66
2022/12/30 13:04:13;;;;;;;4.97;1.17;;;;;;;;;;5036528;28;20052;-66
2022/12/30 13:06:43;;;;;;;7.38;1.35;;;;;;;;;;5074288;28;20123;-66
2022/12/30 13:09:22;;;;;;;4.18;0.93;;;;;;;;;;5064749;28;20037;-66
2022/12/30 13:11:56;;;;;;;4.95;1.40;;;;;;;;;;5056075;28;20448;-66
2022/12/30 13:14:41;;;;;;;3.03;0.90;;;;;;;;;;5065833;28;20521;-66
2022/12/30 13:17:14;;;;;;;6.20;1.40;;;;;;;;;;5074613;28;20123;-66
2022/12/30 13:19:41;;;;;;;6.60;1.30;;;;;;;;;;5065035;28;20047;-66
2022/12/30 13:22:08;;;;;;;5.47;1.00;;;;;;;;;;5071859;28;20477;-66
2022/12/30 13:24:38;;;;;;;4.13;1.08;;;;;;;;;;5056738;28;20059;-66
2022/12/30 13:27:05;;;;;;;5.32;1.77;;;;;;;;;;5054063;28;20052;-65
2022/12/30 13:29:33;;;;;;;4.38;1.00;;;;;;;;;;5054273;28;20059;-65
2022/12/30 13:32:05;;;;;;;4.00;0.90;;;;;;;;;;5063954;28;20040;-66
2022/12/30 13:34:37;;;;;;;3.15;0.98;;;;;;;;;;5073922;28;20032;-66
2022/12/30 13:37:06;;;;;;;2.83;0.70;;;;;;;;;;5053244;28;20515;-66
2022/12/30 13:39:45;;;;;;;2.15;1.02;;;;;;;;;;5053770;28;20072;-66
2022/12/30 13:42:30;;;;;;;5.75;1.38;;;;;;;;;;5065172;28;20395;-66
2022/12/30 13:44:56;;;;;;;5.70;0.90;;;;;;;;;;5064772;22;20516;-68
2022/12/30 13:47:28;;;;;;;5.30;1.23;;;;;;;;;;5047026;28;20453;-69
2022/12/30 13:49:54;;;;;;;4.60;1.38;;;;;;;;;;5053259;28;20068;-69
2022/12/30 13:52:22;;;;;;;5.78;1.05;;;;;;;;;;5046777;28;20525;-69
2022/12/30 13:54:52;;;;;;;4.53;1.05;;;;;;;;;;5041384;28;20095;-69
2022/12/30 13:57:31;;;;;;;4.38;1.27;;;;;;;;;;5033928;28;20056;-69
2022/12/30 14:00:13;;;;;;;4.63;1.35;;;;;;;;;;5033663;28;20438;-69
2022/12/30 14:02:47;;;;;;;4.75;1.10;;;;;;;;;;5047645;28;20098;-69
2022/12/30 14:05:32;;;;;;;3.33;1.33;;;;;;;;;;5053769;28;20045;-68
2022/12/30 14:07:58;;;;;;;4.22;1.30;;;;;;;;;;5053051;28;20059;-69
2022/12/30 14:10:24;;;;;;;6.95;1.15;;;;;;;;;;5053194;28;20041;-68
2022/12/30 14:12:59;;;;;;;3.38;1.15;;;;;;;;;;5045910;28;20044;-68
2022/12/30 14:15:31;;;;;;;4.25;1.25;;;;;;;;;;5041705;28;20073;-68
2022/12/30 14:17:59;;;;;;;2.92;0.95;;;;;;;;;;5036611;28;20041;-69
2022/12/30 14:20:26;;;;;;;5.47;1.20;;;;;;;;;;5045593;28;20068;-68
2022/12/30 14:23:00;;;;;;;5.03;1.33;;;;;;;;;;5047019;28;20037;-67
2022/12/30 14:25:29;;;;;;;7.07;2.00;;;;;;;;;;5042159;28;20040;-67
2022/12/30 14:28:03;;;;;;;3.58;1.17;;;;;;;;;;5038996;28;20615;-68
2022/12/30 14:30:33;;;;;;;5.13;1.48;;;;;;;;;;5049484;28;20094;-67
2022/12/30 14:33:04;;;;;;;5.50;1.30;;;;;;;;;;5041728;28;20037;-68
2022/12/30 14:35:31;;;;;;;5.93;1.42;;;;;;;;;;5051586;28;20052;-67
2022/12/30 14:38:14;;;;;;;4.82;1.23;;;;;;;;;;5049348;28;20156;-68
2022/12/30 14:40:40;;;;;;;7.85;1.42;;;;;;;;;;5047075;28;20049;-69
2022/12/30 14:43:17;;;;;;;5.88;1.30;;;;;;;;;;5043420;28;20040;-68
2022/12/30 14:45:43;;;;;;;4.57;1.27;;;;;;;;;;5047721;28;20383;-68
2022/12/30 14:48:09;;;;;;;2.90;1.35;;;;;;;;;;5042038;28;20047;-68
2022/12/30 14:50:35;;;;;;;4.13;1.20;;;;;;;;;;5042341;28;20041;-68
2022/12/30 14:53:06;;;;;;;4.25;1.48;;;;;;;;;;5046051;28;20087;-68
2022/12/30 14:55:34;;;;;;;2.53;1.17;;;;;;;;;;5044200;28;20052;-67
2022/12/30 14:58:02;;;;;;;5.53;1.50;;;;;;;;;;5042639;28;20029;-67
2022/12/30 15:00:30;;;;;;;5.50;2.75;;;;;;;;;;5037897;28;20033;-68
2022/12/30 15:02:57;;;;;;;4.28;1.48;;;;;;;;;;5045484;28;20048;-68
2022/12/30 15:05:23;;;;;;;2.50;1.40;;;;;;;;;;5043994;28;20040;-68
2022/12/30 15:07:55;;;;;;;3.63;1.45;;;;;;;;;;5050133;28;20044;-68
2022/12/30 15:10:44;;;;;;;2.70;1.17;;;;;;;;;;5046429;28;20546;-68
2022/12/30 15:13:48;;;;;;;4.55;2.00;;;;;;;;;;5046114;28;20048;-68
2022/12/30 15:16:25;;;;;;;3.47;1.77;;;;;;;;;;4970499;28;20054;-69
2022/12/30 15:18:58;;;;;;;6.47;1.52;;;;;;;;;;4982292;28;20083;-68
2022/12/30 15:21:27;;;;;;;5.70;1.88;;;;;;;;;;5017160;28;20128;-68
2022/12/30 15:23:56;;;;;;;4.70;2.03;;;;;;;;;;5047810;28;20091;-68
2022/12/30 15:26:22;;;;;;;7.22;1.75;;;;;;;;;;5033554;28;20038;-68
2022/12/30 15:28:48;;;;;;;2.55;1.33;;;;;;;;;;5050616;28;20090;-68
2022/12/30 15:31:21;;;;;;;5.32;1.58;;;;;;;;;;5045451;28;20036;-67
2022/12/30 15:33:59;;;;;;;4.45;1.50;;;;;;;;;;5046862;28;20131;-68
2022/12/30 15:36:26;;;;;;;4.15;2.08;;;;;;;;;;5046748;28;20048;-68
2022/12/30 15:38:53;;;;;;;5.55;2.08;;;;;;;;;;5045044;28;20044;-68
2022/12/30 15:41:22;;;;;;;6.78;2.17;;;;;;;;;;5030626;28;20495;-68